sensor_id;sensor_type;location;lat;lon;timestamp;P1;durP1;ratioP1;P2;durP2;ratioP2
29422;SDS011;16399;51.686;8.684;2023-03-14T00:02:32;7.33;;;1.50;;
29422;SDS011;16399;51.686;8.684;2023-03-14T00:05:35;6.47;;;1.30;;
29422;SDS011;16399;51.686;8.684;2023-03-14T00:08:38;6.95;;;1.42;;
29422;SDS011;16399;51.686;8.684;2023-03-14T00:11:41;3.15;;;1.05;;
29422;SDS011;16399;51.686;8.684;2023-03-14T00:14:43;4.60;;;1.05;;
29422;SDS011;16399;51.686;8.684;2023-03-14T00:17:46;4.87;;;1.07;;
29422;SDS011;16399;51.686;8.684;2023-03-14T00:20:48;2.72;;;0.90;;
29422;SDS011;16399;51.686;8.684;2023-03-14T00:23:50;6.80;;;1.00;;
29422;SDS011;16399;51.686;8.684;2023-03-14T00:26:53;2.17;;;0.90;;
29422;SDS011;16399;51.686;8.684;2023-03-14T00:29:56;3.75;;;1.02;;
29422;SDS011;16399;51.686;8.684;2023-03-14T00:32:58;4.20;;;1.17;;
29422;SDS011;16399;51.686;8.684;2023-03-14T00:36:06;3.58;;;1.10;;
29422;SDS011;16399;51.686;8.684;2023-03-14T00:39:06;5.15;;;1.25;;
29422;SDS011;16399;51.686;8.684;2023-03-14T00:42:08;5.47;;;1.55;;
29422;SDS011;16399;51.686;8.684;2023-03-14T00:45:10;6.60;;;1.42;;
29422;SDS011;16399;51.686;8.684;2023-03-14T00:48:13;3.22;;;1.10;;
29422;SDS011;16399;51.686;8.684;2023-03-14T00:51:15;5.50;;;1.20;;
29422;SDS011;16399;51.686;8.684;2023-03-14T00:54:20;5.28;;;1.20;;
29422;SDS011;16399;51.686;8.684;2023-03-14T00:57:23;6.33;;;1.37;;
29422;SDS011;16399;51.686;8.684;2023-03-14T01:00:25;10.38;;;1.30;;
29422;SDS011;16399;51.686;8.684;2023-03-14T01:03:27;7.37;;;1.27;;
29422;SDS011;16399;51.686;8.684;2023-03-14T01:06:30;3.67;;;1.17;;
29422;SDS011;16399;51.686;8.684;2023-03-14T01:09:32;6.70;;;1.20;;
29422;SDS011;16399;51.686;8.684;2023-03-14T01:12:34;6.00;;;1.35;;
29422;SDS011;16399;51.686;8.684;2023-03-14T01:15:37;3.95;;;0.95;;
29422;SDS011;16399;51.686;8.684;2023-03-14T01:18:39;5.05;;;1.25;;
29422;SDS011;16399;51.686;8.684;2023-03-14T01:21:44;3.70;;;1.00;;
29422;SDS011;16399;51.686;8.684;2023-03-14T01:24:46;2.83;;;0.82;;
29422;SDS011;16399;51.686;8.684;2023-03-14T01:27:48;3.58;;;1.10;;
29422;SDS011;16399;51.686;8.684;2023-03-14T01:30:50;4.75;;;0.98;;
29422;SDS011;16399;51.686;8.684;2023-03-14T01:33:53;3.17;;;0.85;;
29422;SDS011;16399;51.686;8.684;2023-03-14T01:36:55;2.92;;;1.05;;
29422;SDS011;16399;51.686;8.684;2023-03-14T01:39:58;5.25;;;1.10;;
29422;SDS011;16399;51.686;8.684;2023-03-14T01:43:12;5.40;;;1.52;;
29422;SDS011;16399;51.686;8.684;2023-03-14T01:46:19;5.78;;;1.10;;
29422;SDS011;16399;51.686;8.684;2023-03-14T01:52:32;5.33;;;0.90;;
29422;SDS011;16399;51.686;8.684;2023-03-14T01:55:36;5.42;;;1.40;;
29422;SDS011;16399;51.686;8.684;2023-03-14T01:58:39;4.65;;;1.25;;
29422;SDS011;16399;51.686;8.684;2023-03-14T02:01:44;3.60;;;0.93;;
29422;SDS011;16399;51.686;8.684;2023-03-14T02:04:48;5.47;;;1.20;;
29422;SDS011;16399;51.686;8.684;2023-03-14T02:07:53;7.72;;;1.15;;
29422;SDS011;16399;51.686;8.684;2023-03-14T02:10:56;5.17;;;1.15;;
29422;SDS011;16399;51.686;8.684;2023-03-14T02:13:59;4.53;;;1.00;;
29422;SDS011;16399;51.686;8.684;2023-03-14T02:17:03;7.22;;;1.25;;
29422;SDS011;16399;51.686;8.684;2023-03-14T02:23:13;6.00;;;1.02;;
29422;SDS011;16399;51.686;8.684;2023-03-14T02:26:27;11.20;;;1.85;;
29422;SDS011;16399;51.686;8.684;2023-03-14T02:29:30;3.72;;;1.00;;
29422;SDS011;16399;51.686;8.684;2023-03-14T02:32:35;2.72;;;0.62;;
29422;SDS011;16399;51.686;8.684;2023-03-14T02:35:51;3.08;;;0.75;;
29422;SDS011;16399;51.686;8.684;2023-03-14T02:39:08;4.95;;;1.17;;
29422;SDS011;16399;51.686;8.684;2023-03-14T02:42:15;2.92;;;0.80;;
29422;SDS011;16399;51.686;8.684;2023-03-14T02:48:26;5.20;;;1.02;;
29422;SDS011;16399;51.686;8.684;2023-03-14T02:51:31;9.83;;;1.37;;
29422;SDS011;16399;51.686;8.684;2023-03-14T02:54:34;3.27;;;0.68;;
29422;SDS011;16399;51.686;8.684;2023-03-14T02:57:36;4.08;;;0.80;;
29422;SDS011;16399;51.686;8.684;2023-03-14T03:00:39;2.67;;;0.55;;
29422;SDS011;16399;51.686;8.684;2023-03-14T03:03:41;2.65;;;0.60;;
29422;SDS011;16399;51.686;8.684;2023-03-14T03:06:43;1.77;;;0.40;;
29422;SDS011;16399;51.686;8.684;2023-03-14T03:09:46;2.47;;;0.50;;
29422;SDS011;16399;51.686;8.684;2023-03-14T03:12:48;3.35;;;0.55;;
29422;SDS011;16399;51.686;8.684;2023-03-14T03:15:51;3.45;;;0.40;;
29422;SDS011;16399;51.686;8.684;2023-03-14T03:18:54;2.00;;;0.40;;
29422;SDS011;16399;51.686;8.684;2023-03-14T03:21:56;3.37;;;0.57;;
29422;SDS011;16399;51.686;8.684;2023-03-14T03:24:59;2.42;;;0.50;;
29422;SDS011;16399;51.686;8.684;2023-03-14T03:28:01;3.95;;;0.70;;
29422;SDS011;16399;51.686;8.684;2023-03-14T03:31:08;3.40;;;0.60;;
29422;SDS011;16399;51.686;8.684;2023-03-14T03:34:12;1.27;;;0.40;;
29422;SDS011;16399;51.686;8.684;2023-03-14T03:37:15;2.80;;;0.50;;
29422;SDS011;16399;51.686;8.684;2023-03-14T03:40:17;2.08;;;0.50;;
29422;SDS011;16399;51.686;8.684;2023-03-14T03:43:19;2.55;;;0.40;;
29422;SDS011;16399;51.686;8.684;2023-03-14T03:46:22;2.55;;;0.50;;
29422;SDS011;16399;51.686;8.684;2023-03-14T03:49:28;2.83;;;0.50;;
29422;SDS011;16399;51.686;8.684;2023-03-14T03:52:31;3.90;;;0.50;;
29422;SDS011;16399;51.686;8.684;2023-03-14T03:55:34;1.42;;;0.45;;
29422;SDS011;16399;51.686;8.684;2023-03-14T03:58:36;4.60;;;0.57;;
29422;SDS011;16399;51.686;8.684;2023-03-14T04:01:39;3.80;;;0.50;;
29422;SDS011;16399;51.686;8.684;2023-03-14T04:04:41;3.37;;;1.30;;
29422;SDS011;16399;51.686;8.684;2023-03-14T04:07:43;1.80;;;0.33;;
29422;SDS011;16399;51.686;8.684;2023-03-14T04:10:46;3.25;;;0.50;;
29422;SDS011;16399;51.686;8.684;2023-03-14T04:13:48;3.95;;;0.55;;
29422;SDS011;16399;51.686;8.684;2023-03-14T04:16:50;0.68;;;0.35;;
29422;SDS011;16399;51.686;8.684;2023-03-14T04:19:52;2.15;;;0.80;;
29422;SDS011;16399;51.686;8.684;2023-03-14T04:22:55;2.60;;;0.50;;
29422;SDS011;16399;51.686;8.684;2023-03-14T04:25:57;5.67;;;0.50;;
29422;SDS011;16399;51.686;8.684;2023-03-14T04:28:59;2.47;;;0.60;;
29422;SDS011;16399;51.686;8.684;2023-03-14T04:32:02;1.80;;;0.40;;
29422;SDS011;16399;51.686;8.684;2023-03-14T04:35:04;2.35;;;0.42;;
29422;SDS011;16399;51.686;8.684;2023-03-14T04:38:07;5.80;;;0.75;;
29422;SDS011;16399;51.686;8.684;2023-03-14T04:41:09;3.02;;;0.50;;
29422;SDS011;16399;51.686;8.684;2023-03-14T04:44:11;2.40;;;0.55;;
29422;SDS011;16399;51.686;8.684;2023-03-14T04:47:14;5.85;;;0.82;;
29422;SDS011;16399;51.686;8.684;2023-03-14T04:50:16;2.33;;;0.75;;
29422;SDS011;16399;51.686;8.684;2023-03-14T04:53:18;4.65;;;0.72;;
29422;SDS011;16399;51.686;8.684;2023-03-14T04:56:21;4.00;;;0.60;;
29422;SDS011;16399;51.686;8.684;2023-03-14T04:59:23;3.95;;;0.55;;
29422;SDS011;16399;51.686;8.684;2023-03-14T05:02:25;5.17;;;1.02;;
29422;SDS011;16399;51.686;8.684;2023-03-14T05:05:28;4.67;;;0.68;;
29422;SDS011;16399;51.686;8.684;2023-03-14T05:08:30;5.15;;;0.78;;
29422;SDS011;16399;51.686;8.684;2023-03-14T05:11:32;4.60;;;0.70;;
29422;SDS011;16399;51.686;8.684;2023-03-14T05:14:35;5.95;;;0.90;;
29422;SDS011;16399;51.686;8.684;2023-03-14T05:17:37;1.35;;;0.50;;
29422;SDS011;16399;51.686;8.684;2023-03-14T05:20:39;4.25;;;1.10;;
29422;SDS011;16399;51.686;8.684;2023-03-14T05:23:43;4.70;;;0.80;;
29422;SDS011;16399;51.686;8.684;2023-03-14T05:26:45;2.02;;;0.72;;
29422;SDS011;16399;51.686;8.684;2023-03-14T05:29:48;3.75;;;0.90;;
29422;SDS011;16399;51.686;8.684;2023-03-14T05:32:50;3.65;;;1.00;;
29422;SDS011;16399;51.686;8.684;2023-03-14T05:35:52;6.15;;;0.98;;
29422;SDS011;16399;51.686;8.684;2023-03-14T05:38:55;8.75;;;1.42;;
29422;SDS011;16399;51.686;8.684;2023-03-14T05:41:57;9.33;;;2.22;;
29422;SDS011;16399;51.686;8.684;2023-03-14T05:44:59;5.87;;;1.00;;
29422;SDS011;16399;51.686;8.684;2023-03-14T05:48:03;6.75;;;1.55;;
29422;SDS011;16399;51.686;8.684;2023-03-14T05:51:06;7.37;;;1.37;;
29422;SDS011;16399;51.686;8.684;2023-03-14T05:54:08;12.25;;;1.20;;
29422;SDS011;16399;51.686;8.684;2023-03-14T05:57:10;6.28;;;1.30;;
29422;SDS011;16399;51.686;8.684;2023-03-14T06:00:14;4.25;;;1.07;;
29422;SDS011;16399;51.686;8.684;2023-03-14T06:03:16;6.60;;;1.55;;
29422;SDS011;16399;51.686;8.684;2023-03-14T06:06:19;6.40;;;1.30;;
29422;SDS011;16399;51.686;8.684;2023-03-14T06:09:21;6.62;;;1.10;;
29422;SDS011;16399;51.686;8.684;2023-03-14T06:12:24;5.15;;;1.15;;
29422;SDS011;16399;51.686;8.684;2023-03-14T06:15:26;5.25;;;1.05;;
29422;SDS011;16399;51.686;8.684;2023-03-14T06:18:29;5.35;;;1.10;;
29422;SDS011;16399;51.686;8.684;2023-03-14T06:21:32;9.18;;;1.75;;
29422;SDS011;16399;51.686;8.684;2023-03-14T06:24:34;9.05;;;1.35;;
29422;SDS011;16399;51.686;8.684;2023-03-14T06:27:37;7.50;;;1.50;;
29422;SDS011;16399;51.686;8.684;2023-03-14T06:30:39;4.80;;;1.15;;
29422;SDS011;16399;51.686;8.684;2023-03-14T06:33:41;4.40;;;1.12;;
29422;SDS011;16399;51.686;8.684;2023-03-14T06:36:43;5.30;;;0.93;;
29422;SDS011;16399;51.686;8.684;2023-03-14T06:39:46;7.62;;;1.20;;
29422;SDS011;16399;51.686;8.684;2023-03-14T06:42:48;4.30;;;1.10;;
29422;SDS011;16399;51.686;8.684;2023-03-14T06:45:50;5.28;;;1.07;;
29422;SDS011;16399;51.686;8.684;2023-03-14T06:48:53;6.40;;;1.02;;
29422;SDS011;16399;51.686;8.684;2023-03-14T06:51:55;5.15;;;1.15;;
29422;SDS011;16399;51.686;8.684;2023-03-14T06:54:57;3.37;;;1.00;;
29422;SDS011;16399;51.686;8.684;2023-03-14T06:58:00;4.47;;;0.88;;
29422;SDS011;16399;51.686;8.684;2023-03-14T07:01:02;6.97;;;0.90;;
29422;SDS011;16399;51.686;8.684;2023-03-14T07:04:04;3.33;;;0.90;;
29422;SDS011;16399;51.686;8.684;2023-03-14T07:07:10;3.10;;;0.75;;
29422;SDS011;16399;51.686;8.684;2023-03-14T07:10:13;4.22;;;0.65;;
29422;SDS011;16399;51.686;8.684;2023-03-14T07:13:15;4.17;;;0.60;;
29422;SDS011;16399;51.686;8.684;2023-03-14T07:16:17;5.92;;;0.90;;
29422;SDS011;16399;51.686;8.684;2023-03-14T07:19:20;2.87;;;0.80;;
29422;SDS011;16399;51.686;8.684;2023-03-14T07:22:22;1.92;;;0.50;;
29422;SDS011;16399;51.686;8.684;2023-03-14T07:25:25;2.10;;;0.40;;
29422;SDS011;16399;51.686;8.684;2023-03-14T07:28:27;1.98;;;0.50;;
29422;SDS011;16399;51.686;8.684;2023-03-14T07:31:29;3.72;;;0.62;;
29422;SDS011;16399;51.686;8.684;2023-03-14T07:34:32;2.35;;;0.68;;
29422;SDS011;16399;51.686;8.684;2023-03-14T07:37:34;1.70;;;0.42;;
29422;SDS011;16399;51.686;8.684;2023-03-14T07:40:37;5.12;;;0.70;;
29422;SDS011;16399;51.686;8.684;2023-03-14T07:43:39;2.60;;;0.80;;
29422;SDS011;16399;51.686;8.684;2023-03-14T07:46:41;4.03;;;0.60;;
29422;SDS011;16399;51.686;8.684;2023-03-14T07:49:44;2.92;;;0.60;;
29422;SDS011;16399;51.686;8.684;2023-03-14T07:52:46;1.25;;;0.30;;
29422;SDS011;16399;51.686;8.684;2023-03-14T07:55:50;1.45;;;0.40;;
29422;SDS011;16399;51.686;8.684;2023-03-14T07:58:53;0.70;;;0.20;;
29422;SDS011;16399;51.686;8.684;2023-03-14T08:01:55;1.95;;;0.30;;
29422;SDS011;16399;51.686;8.684;2023-03-14T08:04:57;1.42;;;0.30;;
29422;SDS011;16399;51.686;8.684;2023-03-14T08:08:00;1.45;;;0.30;;
29422;SDS011;16399;51.686;8.684;2023-03-14T08:11:03;1.45;;;0.35;;
29422;SDS011;16399;51.686;8.684;2023-03-14T08:14:08;1.95;;;0.40;;
29422;SDS011;16399;51.686;8.684;2023-03-14T08:17:11;0.55;;;0.30;;
29422;SDS011;16399;51.686;8.684;2023-03-14T08:20:14;0.30;;;0.20;;
29422;SDS011;16399;51.686;8.684;2023-03-14T08:23:16;0.47;;;0.20;;
29422;SDS011;16399;51.686;8.684;2023-03-14T08:26:18;0.50;;;0.20;;
29422;SDS011;16399;51.686;8.684;2023-03-14T08:29:21;0.10;;;0.10;;
29422;SDS011;16399;51.686;8.684;2023-03-14T08:32:23;0.37;;;0.20;;
29422;SDS011;16399;51.686;8.684;2023-03-14T08:35:25;0.42;;;0.20;;
29422;SDS011;16399;51.686;8.684;2023-03-14T08:38:28;0.85;;;0.20;;
29422;SDS011;16399;51.686;8.684;2023-03-14T08:41:30;0.62;;;0.20;;
29422;SDS011;16399;51.686;8.684;2023-03-14T08:44:33;0.53;;;0.25;;
29422;SDS011;16399;51.686;8.684;2023-03-14T08:47:35;0.42;;;0.20;;
29422;SDS011;16399;51.686;8.684;2023-03-14T08:50:37;0.72;;;0.30;;
29422;SDS011;16399;51.686;8.684;2023-03-14T08:53:40;0.30;;;0.20;;
29422;SDS011;16399;51.686;8.684;2023-03-14T08:56:43;0.10;;;0.10;;
29422;SDS011;16399;51.686;8.684;2023-03-14T08:59:45;1.50;;;0.30;;
29422;SDS011;16399;51.686;8.684;2023-03-14T09:02:47;1.10;;;0.53;;
29422;SDS011;16399;51.686;8.684;2023-03-14T09:05:50;1.05;;;0.37;;
29422;SDS011;16399;51.686;8.684;2023-03-14T09:08:53;0.82;;;0.30;;
29422;SDS011;16399;51.686;8.684;2023-03-14T09:11:56;0.45;;;0.20;;
29422;SDS011;16399;51.686;8.684;2023-03-14T09:14:58;0.28;;;0.20;;
29422;SDS011;16399;51.686;8.684;2023-03-14T09:18:01;2.08;;;0.72;;
29422;SDS011;16399;51.686;8.684;2023-03-14T09:21:03;0.20;;;0.20;;
29422;SDS011;16399;51.686;8.684;2023-03-14T09:24:05;0.82;;;0.20;;
29422;SDS011;16399;51.686;8.684;2023-03-14T09:27:08;0.78;;;0.20;;
29422;SDS011;16399;51.686;8.684;2023-03-14T09:30:10;0.10;;;0.10;;
29422;SDS011;16399;51.686;8.684;2023-03-14T09:33:13;0.10;;;0.10;;
29422;SDS011;16399;51.686;8.684;2023-03-14T09:36:15;0.57;;;0.30;;
29422;SDS011;16399;51.686;8.684;2023-03-14T09:39:18;0.20;;;0.15;;
29422;SDS011;16399;51.686;8.684;2023-03-14T09:42:21;1.37;;;0.30;;
29422;SDS011;16399;51.686;8.684;2023-03-14T09:45:26;0.88;;;0.30;;
29422;SDS011;16399;51.686;8.684;2023-03-14T09:48:32;0.20;;;0.20;;
29422;SDS011;16399;51.686;8.684;2023-03-14T09:54:42;0.20;;;0.20;;
29422;SDS011;16399;51.686;8.684;2023-03-14T09:57:45;0.78;;;0.33;;
29422;SDS011;16399;51.686;8.684;2023-03-14T10:00:50;0.20;;;0.20;;
29422;SDS011;16399;51.686;8.684;2023-03-14T10:03:54;0.65;;;0.35;;
29422;SDS011;16399;51.686;8.684;2023-03-14T10:06:58;0.47;;;0.33;;
29422;SDS011;16399;51.686;8.684;2023-03-14T10:10:00;1.27;;;0.28;;
29422;SDS011;16399;51.686;8.684;2023-03-14T10:13:25;0.30;;;0.30;;
29422;SDS011;16399;51.686;8.684;2023-03-14T10:16:30;2.47;;;0.30;;
29422;SDS011;16399;51.686;8.684;2023-03-14T10:19:34;0.53;;;0.20;;
29422;SDS011;16399;51.686;8.684;2023-03-14T10:22:39;1.00;;;0.28;;
29422;SDS011;16399;51.686;8.684;2023-03-14T10:25:42;1.62;;;0.25;;
29422;SDS011;16399;51.686;8.684;2023-03-14T10:28:47;0.72;;;0.33;;
29422;SDS011;16399;51.686;8.684;2023-03-14T10:31:52;0.42;;;0.30;;
29422;SDS011;16399;51.686;8.684;2023-03-14T10:35:18;0.78;;;0.20;;
29422;SDS011;16399;51.686;8.684;2023-03-14T10:38:17;0.20;;;0.20;;
29422;SDS011;16399;51.686;8.684;2023-03-14T10:41:26;0.25;;;0.20;;
29422;SDS011;16399;51.686;8.684;2023-03-14T10:44:30;1.00;;;0.30;;
29422;SDS011;16399;51.686;8.684;2023-03-14T10:47:33;1.35;;;0.93;;
29422;SDS011;16399;51.686;8.684;2023-03-14T10:50:36;1.15;;;0.40;;
29422;SDS011;16399;51.686;8.684;2023-03-14T10:53:40;1.02;;;0.40;;
29422;SDS011;16399;51.686;8.684;2023-03-14T10:56:55;3.83;;;0.50;;
29422;SDS011;16399;51.686;8.684;2023-03-14T11:00:00;4.05;;;0.70;;
29422;SDS011;16399;51.686;8.684;2023-03-14T11:03:11;2.92;;;0.72;;
29422;SDS011;16399;51.686;8.684;2023-03-14T11:06:24;1.85;;;0.65;;
29422;SDS011;16399;51.686;8.684;2023-03-14T11:09:39;1.55;;;0.50;;
29422;SDS011;16399;51.686;8.684;2023-03-14T11:16:25;0.30;;;0.30;;
29422;SDS011;16399;51.686;8.684;2023-03-14T11:23:02;0.78;;;0.30;;
29422;SDS011;16399;51.686;8.684;2023-03-14T11:36:14;0.75;;;0.30;;
29422;SDS011;16399;51.686;8.684;2023-03-14T11:39:17;0.72;;;0.42;;
29422;SDS011;16399;51.686;8.684;2023-03-14T11:42:21;0.37;;;0.30;;
29422;SDS011;16399;51.686;8.684;2023-03-14T11:45:27;1.23;;;0.60;;
29422;SDS011;16399;51.686;8.684;2023-03-14T11:48:38;1.22;;;0.40;;
29422;SDS011;16399;51.686;8.684;2023-03-14T11:51:46;2.20;;;0.72;;
29422;SDS011;16399;51.686;8.684;2023-03-14T11:54:53;1.17;;;0.70;;
29422;SDS011;16399;51.686;8.684;2023-03-14T11:58:27;1.80;;;0.60;;
29422;SDS011;16399;51.686;8.684;2023-03-14T12:01:44;0.68;;;0.60;;
29422;SDS011;16399;51.686;8.684;2023-03-14T12:05:16;1.32;;;0.60;;
29422;SDS011;16399;51.686;8.684;2023-03-14T12:08:39;1.45;;;0.60;;
29422;SDS011;16399;51.686;8.684;2023-03-14T12:11:50;0.85;;;0.50;;
29422;SDS011;16399;51.686;8.684;2023-03-14T12:14:59;0.78;;;0.30;;
29422;SDS011;16399;51.686;8.684;2023-03-14T12:18:03;1.10;;;0.25;;
29422;SDS011;16399;51.686;8.684;2023-03-14T12:21:06;0.23;;;0.23;;
29422;SDS011;16399;51.686;8.684;2023-03-14T12:24:16;0.20;;;0.10;;
29422;SDS011;16399;51.686;8.684;2023-03-14T12:27:43;1.12;;;0.23;;
29422;SDS011;16399;51.686;8.684;2023-03-14T12:30:43;0.42;;;0.20;;
29422;SDS011;16399;51.686;8.684;2023-03-14T12:34:00;1.07;;;0.30;;
29422;SDS011;16399;51.686;8.684;2023-03-14T12:40:25;0.93;;;0.40;;
29422;SDS011;16399;51.686;8.684;2023-03-14T12:43:29;1.10;;;0.40;;
29422;SDS011;16399;51.686;8.684;2023-03-14T12:46:33;3.65;;;0.50;;
29422;SDS011;16399;51.686;8.684;2023-03-14T12:49:36;1.82;;;0.30;;
29422;SDS011;16399;51.686;8.684;2023-03-14T12:59:27;4.83;;;1.00;;
29422;SDS011;16399;51.686;8.684;2023-03-14T13:02:41;4.92;;;0.82;;
29422;SDS011;16399;51.686;8.684;2023-03-14T13:05:51;5.92;;;0.82;;
29422;SDS011;16399;51.686;8.684;2023-03-14T13:08:54;7.05;;;1.00;;
29422;SDS011;16399;51.686;8.684;2023-03-14T13:12:10;2.92;;;0.70;;
29422;SDS011;16399;51.686;8.684;2023-03-14T13:15:18;4.28;;;0.72;;
29422;SDS011;16399;51.686;8.684;2023-03-14T13:21:34;5.45;;;1.00;;
29422;SDS011;16399;51.686;8.684;2023-03-14T13:24:38;6.62;;;1.10;;
29422;SDS011;16399;51.686;8.684;2023-03-14T13:27:40;5.97;;;0.95;;
29422;SDS011;16399;51.686;8.684;2023-03-14T13:30:45;5.33;;;1.30;;
29422;SDS011;16399;51.686;8.684;2023-03-14T13:34:01;8.63;;;1.45;;
29422;SDS011;16399;51.686;8.684;2023-03-14T13:37:13;9.13;;;1.70;;
29422;SDS011;16399;51.686;8.684;2023-03-14T13:40:20;8.43;;;1.62;;
29422;SDS011;16399;51.686;8.684;2023-03-14T13:43:29;7.80;;;1.25;;
29422;SDS011;16399;51.686;8.684;2023-03-14T13:46:33;9.88;;;1.62;;
29422;SDS011;16399;51.686;8.684;2023-03-14T13:49:37;11.22;;;1.50;;
29422;SDS011;16399;51.686;8.684;2023-03-14T13:52:40;10.38;;;1.52;;
29422;SDS011;16399;51.686;8.684;2023-03-14T13:55:42;9.33;;;1.30;;
29422;SDS011;16399;51.686;8.684;2023-03-14T13:58:45;9.35;;;1.80;;
29422;SDS011;16399;51.686;8.684;2023-03-14T14:01:47;8.28;;;1.50;;
29422;SDS011;16399;51.686;8.684;2023-03-14T14:04:51;8.70;;;1.82;;
29422;SDS011;16399;51.686;8.684;2023-03-14T14:07:53;13.90;;;1.82;;
29422;SDS011;16399;51.686;8.684;2023-03-14T14:10:58;8.98;;;1.67;;
29422;SDS011;16399;51.686;8.684;2023-03-14T14:14:02;6.47;;;1.55;;
29422;SDS011;16399;51.686;8.684;2023-03-14T14:17:08;14.30;;;1.55;;
29422;SDS011;16399;51.686;8.684;2023-03-14T14:20:26;11.05;;;1.87;;
29422;SDS011;16399;51.686;8.684;2023-03-14T14:23:40;11.97;;;2.05;;
29422;SDS011;16399;51.686;8.684;2023-03-14T14:26:47;7.70;;;2.42;;
29422;SDS011;16399;51.686;8.684;2023-03-14T14:30:00;18.95;;;2.75;;
29422;SDS011;16399;51.686;8.684;2023-03-14T14:33:11;10.13;;;1.60;;
29422;SDS011;16399;51.686;8.684;2023-03-14T14:36:23;13.30;;;1.62;;
29422;SDS011;16399;51.686;8.684;2023-03-14T14:39:30;12.28;;;2.00;;
29422;SDS011;16399;51.686;8.684;2023-03-14T14:42:32;19.10;;;2.70;;
29422;SDS011;16399;51.686;8.684;2023-03-14T14:45:35;11.57;;;1.90;;
29422;SDS011;16399;51.686;8.684;2023-03-14T14:48:37;15.38;;;2.40;;
29422;SDS011;16399;51.686;8.684;2023-03-14T14:51:41;13.08;;;2.20;;
29422;SDS011;16399;51.686;8.684;2023-03-14T14:54:51;13.45;;;2.35;;
29422;SDS011;16399;51.686;8.684;2023-03-14T14:57:55;17.60;;;2.85;;
29422;SDS011;16399;51.686;8.684;2023-03-14T15:01:32;15.90;;;3.47;;
29422;SDS011;16399;51.686;8.684;2023-03-14T15:04:23;12.68;;;2.47;;
29422;SDS011;16399;51.686;8.684;2023-03-14T15:07:26;8.78;;;2.15;;
29422;SDS011;16399;51.686;8.684;2023-03-14T15:10:28;23.98;;;3.27;;
29422;SDS011;16399;51.686;8.684;2023-03-14T15:13:30;18.70;;;2.72;;
29422;SDS011;16399;51.686;8.684;2023-03-14T15:16:33;13.30;;;1.95;;
29422;SDS011;16399;51.686;8.684;2023-03-14T15:19:36;13.40;;;2.22;;
29422;SDS011;16399;51.686;8.684;2023-03-14T15:22:40;16.77;;;3.10;;
29422;SDS011;16399;51.686;8.684;2023-03-14T15:25:43;12.50;;;2.08;;
29422;SDS011;16399;51.686;8.684;2023-03-14T15:28:47;15.70;;;2.87;;
29422;SDS011;16399;51.686;8.684;2023-03-14T15:31:49;13.35;;;1.98;;
29422;SDS011;16399;51.686;8.684;2023-03-14T15:34:51;12.25;;;2.00;;
29422;SDS011;16399;51.686;8.684;2023-03-14T15:37:55;10.10;;;2.00;;
29422;SDS011;16399;51.686;8.684;2023-03-14T15:40:57;13.62;;;2.15;;
29422;SDS011;16399;51.686;8.684;2023-03-14T15:44:00;13.08;;;2.35;;
29422;SDS011;16399;51.686;8.684;2023-03-14T15:47:02;9.90;;;2.25;;
29422;SDS011;16399;51.686;8.684;2023-03-14T15:50:05;8.33;;;1.60;;
29422;SDS011;16399;51.686;8.684;2023-03-14T15:53:09;7.55;;;1.60;;
29422;SDS011;16399;51.686;8.684;2023-03-14T15:56:13;9.63;;;2.30;;
29422;SDS011;16399;51.686;8.684;2023-03-14T15:59:18;11.97;;;2.92;;
29422;SDS011;16399;51.686;8.684;2023-03-14T16:02:20;9.90;;;2.08;;
29422;SDS011;16399;51.686;8.684;2023-03-14T16:05:22;12.23;;;1.80;;
29422;SDS011;16399;51.686;8.684;2023-03-14T16:08:24;10.05;;;1.95;;
29422;SDS011;16399;51.686;8.684;2023-03-14T16:11:29;7.67;;;1.52;;
29422;SDS011;16399;51.686;8.684;2023-03-14T16:14:31;9.43;;;1.45;;
29422;SDS011;16399;51.686;8.684;2023-03-14T16:17:33;10.75;;;1.72;;
29422;SDS011;16399;51.686;8.684;2023-03-14T16:20:37;9.75;;;1.72;;
29422;SDS011;16399;51.686;8.684;2023-03-14T16:23:39;8.55;;;2.00;;
29422;SDS011;16399;51.686;8.684;2023-03-14T16:26:42;8.40;;;2.10;;
29422;SDS011;16399;51.686;8.684;2023-03-14T16:29:45;7.65;;;1.50;;
29422;SDS011;16399;51.686;8.684;2023-03-14T16:32:48;7.05;;;1.70;;
29422;SDS011;16399;51.686;8.684;2023-03-14T16:35:56;14.85;;;1.62;;
29422;SDS011;16399;51.686;8.684;2023-03-14T16:39:00;12.43;;;1.57;;
29422;SDS011;16399;51.686;8.684;2023-03-14T16:42:03;9.43;;;1.85;;
29422;SDS011;16399;51.686;8.684;2023-03-14T16:45:05;5.20;;;1.25;;
29422;SDS011;16399;51.686;8.684;2023-03-14T16:48:08;8.38;;;1.10;;
29422;SDS011;16399;51.686;8.684;2023-03-14T16:51:11;11.85;;;2.00;;
29422;SDS011;16399;51.686;8.684;2023-03-14T16:54:14;10.05;;;1.50;;
29422;SDS011;16399;51.686;8.684;2023-03-14T16:57:16;8.55;;;1.22;;
29422;SDS011;16399;51.686;8.684;2023-03-14T17:00:19;7.90;;;1.27;;
29422;SDS011;16399;51.686;8.684;2023-03-14T17:03:22;8.73;;;1.67;;
29422;SDS011;16399;51.686;8.684;2023-03-14T17:06:27;6.47;;;1.27;;
29422;SDS011;16399;51.686;8.684;2023-03-14T17:09:29;7.60;;;2.27;;
29422;SDS011;16399;51.686;8.684;2023-03-14T17:12:32;9.63;;;1.77;;
29422;SDS011;16399;51.686;8.684;2023-03-14T17:15:34;11.15;;;2.25;;
29422;SDS011;16399;51.686;8.684;2023-03-14T17:18:37;13.78;;;2.08;;
29422;SDS011;16399;51.686;8.684;2023-03-14T17:21:39;12.75;;;1.95;;
29422;SDS011;16399;51.686;8.684;2023-03-14T17:24:42;17.00;;;4.78;;
29422;SDS011;16399;51.686;8.684;2023-03-14T17:27:44;13.90;;;3.02;;
29422;SDS011;16399;51.686;8.684;2023-03-14T17:30:47;10.28;;;2.60;;
29422;SDS011;16399;51.686;8.684;2023-03-14T17:33:50;12.03;;;3.15;;
29422;SDS011;16399;51.686;8.684;2023-03-14T17:36:52;9.03;;;2.10;;
29422;SDS011;16399;51.686;8.684;2023-03-14T17:39:54;11.05;;;1.65;;
29422;SDS011;16399;51.686;8.684;2023-03-14T17:42:58;7.47;;;1.13;;
29422;SDS011;16399;51.686;8.684;2023-03-14T17:46:02;9.73;;;1.65;;
29422;SDS011;16399;51.686;8.684;2023-03-14T17:49:08;6.50;;;1.27;;
29422;SDS011;16399;51.686;8.684;2023-03-14T17:52:10;8.05;;;1.47;;
29422;SDS011;16399;51.686;8.684;2023-03-14T17:55:13;7.87;;;1.90;;
29422;SDS011;16399;51.686;8.684;2023-03-14T17:58:15;10.32;;;2.52;;
29422;SDS011;16399;51.686;8.684;2023-03-14T18:01:17;8.53;;;1.77;;
29422;SDS011;16399;51.686;8.684;2023-03-14T18:04:20;14.25;;;2.33;;
29422;SDS011;16399;51.686;8.684;2023-03-14T18:07:22;6.45;;;1.80;;
29422;SDS011;16399;51.686;8.684;2023-03-14T18:10:25;8.78;;;1.50;;
29422;SDS011;16399;51.686;8.684;2023-03-14T18:13:27;7.22;;;1.40;;
29422;SDS011;16399;51.686;8.684;2023-03-14T18:16:31;10.35;;;1.70;;
29422;SDS011;16399;51.686;8.684;2023-03-14T18:19:33;11.33;;;1.92;;
29422;SDS011;16399;51.686;8.684;2023-03-14T18:22:36;10.60;;;1.67;;
29422;SDS011;16399;51.686;8.684;2023-03-14T18:25:39;8.45;;;1.40;;
29422;SDS011;16399;51.686;8.684;2023-03-14T18:28:41;35.85;;;12.00;;
29422;SDS011;16399;51.686;8.684;2023-03-14T18:31:43;6.40;;;1.82;;
29422;SDS011;16399;51.686;8.684;2023-03-14T18:34:45;9.23;;;1.35;;
29422;SDS011;16399;51.686;8.684;2023-03-14T18:37:48;10.55;;;1.90;;
29422;SDS011;16399;51.686;8.684;2023-03-14T18:40:50;7.42;;;1.40;;
29422;SDS011;16399;51.686;8.684;2023-03-14T18:43:52;13.83;;;1.72;;
29422;SDS011;16399;51.686;8.684;2023-03-14T18:47:01;11.20;;;1.90;;
29422;SDS011;16399;51.686;8.684;2023-03-14T18:50:03;10.13;;;1.72;;
29422;SDS011;16399;51.686;8.684;2023-03-14T18:53:06;7.92;;;1.77;;
29422;SDS011;16399;51.686;8.684;2023-03-14T18:56:10;7.17;;;1.42;;
29422;SDS011;16399;51.686;8.684;2023-03-14T18:59:13;6.95;;;2.17;;
29422;SDS011;16399;51.686;8.684;2023-03-14T19:02:15;9.15;;;2.42;;
29422;SDS011;16399;51.686;8.684;2023-03-14T19:05:17;6.12;;;1.62;;
29422;SDS011;16399;51.686;8.684;2023-03-14T19:08:20;16.32;;;2.02;;
29422;SDS011;16399;51.686;8.684;2023-03-14T19:11:26;7.60;;;2.05;;